Time;durP1;ratioP1;P1;durP2;ratioP2;P2;SDS_P1;SDS_P2;PMS_P1;PMS_P2;Temp;Humidity;BMP_temperature;BMP_pressure;BME280_temperature;BME280_humidity;BME280_pressure;Samples;Min_cycle;Max_cycle;Signal;HPM_P1;HPM_P2
2021/12/03 14:55:57;;;;;;;73.22;9.60;;;24.60;53.60;;;;;;5009527;28;20018;-74
2021/12/03 14:58:38;;;;;;;48.33;7.43;;;24.60;53.50;;;;;;5007019;28;20029;-77
2021/12/03 15:01:18;;;;;;;23.05;4.15;;;24.60;53.30;;;;;;5005810;28;20156;-82
2021/12/03 15:08:59;;;;;;;18.95;2.97;;;24.70;53.10;;;;;;5007121;28;20076;-75
2021/12/03 15:25:03;;;;;;;8.10;2.10;;;24.40;65.40;;;;;;5008294;28;20422;-74
2021/12/03 15:30:24;;;;;;;10.35;1.85;;;24.30;65.40;;;;;;5006921;28;20022;-74
2021/12/03 15:33:05;;;;;;;22.00;6.40;;;24.20;63.20;;;;;;5007350;28;20493;-71
2021/12/03 15:35:42;;;;;;;12.95;2.83;;;23.90;61.00;;;;;;5006552;28;20022;-72
2021/12/03 15:38:21;;;;;;;29.73;4.13;;;23.60;60.60;;;;;;5009696;28;20018;-72
2021/12/03 15:57:46;;;;;;;5.00;1.45;;;22.90;60.70;;;;;;5001382;28;20030;-72
2021/12/03 16:08:17;;;;;;;6.88;1.15;;;22.60;60.60;;;;;;4993854;28;20496;-79
2021/12/03 16:10:55;;;;;;;6.95;1.50;;;22.50;60.10;;;;;;4990123;28;20496;-74
2021/12/03 16:19:18;;;;;;;5.90;1.50;;;22.40;60.30;;;;;;4992594;28;21408;-71
2021/12/03 16:22:04;;;;;;;6.82;1.35;;;22.30;61.20;;;;;;4990219;28;20026;-72
2021/12/03 16:53:57;;;;;;;12.15;2.42;;;21.80;60.30;;;;;;4994793;28;20023;-71
2021/12/03 16:56:26;;;;;;;16.70;5.15;;;21.80;60.00;;;;;;4991176;28;20058;-72
2021/12/03 16:58:55;;;;;;;6.72;1.52;;;21.80;61.00;;;;;;4993712;28;20030;-71
2021/12/03 17:17:37;;;;;;;6.38;0.80;;;21.50;60.60;;;;;;4989496;28;20117;-74
2021/12/03 17:28:35;;;;;;;2.28;0.77;;;21.50;60.10;;;;;;4989995;28;20104;-72
2021/12/03 17:45:06;;;;;;;14.77;10.90;;;21.50;60.00;;;;;;4990731;28;20473;-73
2021/12/03 18:44:37;;;;;;;3.10;1.63;;;21.00;60.50;;;;;;4987778;28;20033;-79
2021/12/03 18:52:40;;;;;;;3.50;0.95;;;20.90;60.90;;;;;;4989071;28;20473;-76
2021/12/03 18:55:13;;;;;;;21.05;2.05;;;20.90;60.90;;;;;;4986565;28;20029;-73
2021/12/03 18:57:44;;;;;;;3.92;1.35;;;20.90;61.10;;;;;;4989273;28;20461;-72
2021/12/03 19:00:15;;;;;;;5.20;1.35;;;20.90;60.70;;;;;;4992438;28;20037;-75
2021/12/03 19:02:45;;;;;;;4.55;1.17;;;20.90;61.10;;;;;;4989381;28;20026;-78
2021/12/03 19:05:52;;;;;;;4.53;1.00;;;20.90;61.20;;;;;;4989601;28;20021;-75
2021/12/03 19:08:08;;;;;;;3.97;1.92;;;20.80;61.30;;;;;;4987038;28;20038;-81
2021/12/03 19:10:43;;;;;;;49.40;39.75;;;20.90;61.50;;;;;;4987333;28;20470;-77
2021/12/03 19:13:14;;;;;;;6.27;2.67;;;20.90;61.70;;;;;;4989146;28;20026;-73
2021/12/03 19:15:42;;;;;;;6.38;1.40;;;20.80;61.50;;;;;;5016807;28;20275;-72
2021/12/03 19:18:09;;;;;;;3.78;1.00;;;20.80;61.50;;;;;;4990705;28;20025;-74
2021/12/03 19:20:40;;;;;;;4.95;0.90;;;20.80;61.70;;;;;;4991824;28;20034;-77
2021/12/03 19:23:07;;;;;;;5.68;0.95;;;20.90;61.60;;;;;;4991468;28;20101;-73
2021/12/03 19:25:35;;;;;;;4.63;0.60;;;20.90;61.60;;;;;;4989808;28;20030;-75
2021/12/03 19:28:01;;;;;;;4.32;1.33;;;20.80;61.50;;;;;;4991583;28;20089;-76
2021/12/03 19:30:28;;;;;;;4.55;1.35;;;20.70;61.60;;;;;;4991726;28;20026;-73
2021/12/03 19:32:54;;;;;;;4.28;1.10;;;20.80;62.10;;;;;;4994745;28;20757;-74
2021/12/03 19:35:21;;;;;;;5.22;1.10;;;20.70;62.00;;;;;;4996820;28;20029;-73
2021/12/03 19:37:51;;;;;;;4.05;1.55;;;20.70;62.20;;;;;;4994088;28;20437;-72
2021/12/03 19:40:17;;;;;;;2.97;0.80;;;20.60;62.10;;;;;;4995024;28;20035;-77
2021/12/03 19:42:49;;;;;;;7.35;1.42;;;20.60;62.20;;;;;;4994478;28;20015;-77
2021/12/03 19:45:19;;;;;;;3.50;1.10;;;20.60;62.60;;;;;;4993415;28;20018;-77
2021/12/03 19:53:02;;;;;;;16.95;14.40;;;20.70;62.40;;;;;;4993426;28;20019;-74
2021/12/03 19:55:29;;;;;;;7.88;5.72;;;20.70;62.40;;;;;;4992643;28;20022;-74
2021/12/03 19:57:56;;;;;;;4.72;1.92;;;20.70;62.50;;;;;;4992704;28;20026;-76
2021/12/03 20:00:24;;;;;;;3.88;1.67;;;20.70;62.40;;;;;;4991406;28;20032;-74
2021/12/03 20:02:51;;;;;;;3.97;1.63;;;20.70;62.30;;;;;;4993204;28;20037;-76
2021/12/03 20:05:17;;;;;;;3.30;0.85;;;20.70;62.40;;;;;;4992193;28;20052;-73
2021/12/03 20:07:44;;;;;;;6.95;1.15;;;20.70;62.30;;;;;;4992322;28;20042;-73
2021/12/03 20:10:13;;;;;;;7.85;1.20;;;20.70;62.70;;;;;;4995045;28;20010;-72
2021/12/03 20:12:40;;;;;;;13.18;1.20;;;20.60;62.70;;;;;;4992951;28;20109;-73
2021/12/03 20:15:14;;;;;;;4.07;0.98;;;20.50;63.10;;;;;;4991475;28;20037;-76
2021/12/03 20:17:50;;;;;;;3.53;0.80;;;20.50;63.30;;;;;;4990803;28;20061;-72
2021/12/03 20:20:17;;;;;;;4.28;1.63;;;20.50;63.20;;;;;;4993633;28;20027;-74
2021/12/03 20:31:16;;;;;;;7.47;1.90;;;20.50;63.90;;;;;;4991877;28;20027;-73
2021/12/03 20:38:16;;;;;;;7.70;1.17;;;20.50;63.60;;;;;;4993682;28;21909;-78
2021/12/03 20:40:43;;;;;;;3.42;1.05;;;20.40;63.90;;;;;;4991331;28;20409;-73
2021/12/03 20:43:27;;;;;;;4.28;1.67;;;20.40;64.10;;;;;;4991955;28;20060;-75
2021/12/03 20:46:16;;;;;;;4.13;1.52;;;20.40;64.50;;;;;;4993664;28;20428;-74
2021/12/03 20:49:27;;;;;;;4.70;1.35;;;20.40;64.40;;;;;;4991943;28;20031;-73
2021/12/03 20:59:39;;;;;;;4.90;1.50;;;20.30;64.60;;;;;;4993881;28;20116;-74
2021/12/03 21:10:26;;;;;;;3.70;1.20;;;20.20;65.10;;;;;;4995215;28;20048;-72
2021/12/03 21:12:55;;;;;;;4.55;1.70;;;20.30;65.40;;;;;;4991936;28;20025;-77
2021/12/03 21:15:34;;;;;;;6.07;1.20;;;20.20;65.20;;;;;;4994069;28;20049;-72
2021/12/03 21:18:07;;;;;;;4.80;1.48;;;20.20;65.30;;;;;;4995895;28;20070;-74
2021/12/03 21:20:52;;;;;;;4.65;1.25;;;20.20;65.40;;;;;;4994368;28;20089;-77
2021/12/03 21:23:22;;;;;;;3.65;1.25;;;20.20;65.60;;;;;;4993791;28;20014;-76
2021/12/03 21:25:53;;;;;;;6.43;2.05;;;20.10;65.60;;;;;;4992114;28;20033;-78
2021/12/03 21:31:30;;;;;;;7.50;1.73;;;20.10;65.60;;;;;;4981643;28;20120;-76
2021/12/03 21:39:39;;;;;;;9.02;1.75;;;20.10;66.30;;;;;;4994974;28;20029;-79
2021/12/03 21:42:06;;;;;;;7.80;1.40;;;20.00;66.60;;;;;;4993089;28;20032;-81
2021/12/03 21:44:33;;;;;;;7.28;1.77;;;20.10;66.70;;;;;;4990758;28;20041;-75
2021/12/03 21:46:59;;;;;;;5.60;1.42;;;20.00;66.60;;;;;;4991854;28;20465;-74
2021/12/03 21:49:28;;;;;;;4.68;1.55;;;20.00;66.70;;;;;;4995128;28;20029;-74
2021/12/03 21:51:55;;;;;;;9.15;2.70;;;20.00;66.50;;;;;;4992026;28;20022;-82
2021/12/03 21:54:21;;;;;;;4.28;1.83;;;20.00;66.60;;;;;;4993530;28;20081;-77
2021/12/03 21:56:48;;;;;;;5.45;1.30;;;20.00;66.70;;;;;;4992134;28;20124;-79
2021/12/03 21:59:18;;;;;;;7.35;1.35;;;20.00;66.90;;;;;;4994287;28;20037;-71
2021/12/03 22:01:45;;;;;;;7.82;1.85;;;20.00;66.90;;;;;;4989677;28;20033;-75
2021/12/03 22:04:11;;;;;;;7.45;1.10;;;20.00;67.10;;;;;;4993277;28;20129;-72
2021/12/03 22:06:40;;;;;;;4.38;1.30;;;20.10;66.90;;;;;;4991238;28;20026;-73
2021/12/03 22:09:06;;;;;;;5.15;1.50;;;20.00;66.70;;;;;;4991759;28;20113;-72
2021/12/03 22:11:33;;;;;;;4.05;1.30;;;20.00;66.70;;;;;;4990945;28;20014;-71
2021/12/03 22:13:59;;;;;;;6.90;1.50;;;20.10;66.90;;;;;;5019102;28;20117;-72
2021/12/03 22:16:26;;;;;;;3.95;1.52;;;20.10;67.00;;;;;;4990801;28;20374;-72
2021/12/03 22:18:52;;;;;;;7.63;1.10;;;20.10;66.60;;;;;;4986667;28;20109;-72
2021/12/03 22:21:20;;;;;;;6.32;1.40;;;20.10;66.80;;;;;;4994475;28;20031;-76
2021/12/03 22:23:47;;;;;;;5.65;1.77;;;20.10;67.00;;;;;;4991649;28;20033;-72
2021/12/03 22:26:16;;;;;;;2.67;1.10;;;20.10;67.00;;;;;;4989257;28;20548;-72
2021/12/03 22:28:43;;;;;;;4.15;1.35;;;20.00;66.80;;;;;;4992765;28;20478;-72
2021/12/03 22:31:10;;;;;;;3.90;1.52;;;20.10;66.80;;;;;;4992014;28;20034;-72
2021/12/03 22:33:39;;;;;;;9.20;2.13;;;20.00;66.60;;;;;;4991005;28;20029;-72
2021/12/03 22:36:06;;;;;;;5.97;1.20;;;20.00;66.80;;;;;;4988565;28;20073;-72
2021/12/03 22:38:34;;;;;;;6.75;3.15;;;20.00;66.80;;;;;;4992199;28;20029;-75
2021/12/03 22:41:02;;;;;;;11.65;2.17;;;20.00;66.90;;;;;;4990349;28;20022;-74
2021/12/03 22:43:33;;;;;;;7.22;1.10;;;20.00;66.90;;;;;;4991548;28;20022;-71
2021/12/03 22:46:05;;;;;;;6.18;2.42;;;20.00;67.10;;;;;;4989145;28;20042;-72
2021/12/03 22:53:30;;;;;;;7.07;1.88;;;19.90;67.50;;;;;;4993072;28;20034;-72
2021/12/03 22:55:56;;;;;;;10.77;2.08;;;19.90;67.90;;;;;;4989669;28;20018;-71
2021/12/03 22:58:23;;;;;;;7.03;1.83;;;19.90;67.80;;;;;;4992568;28;20031;-71
2021/12/03 23:00:56;;;;;;;7.07;1.35;;;19.90;67.80;;;;;;4992619;28;20967;-71
2021/12/03 23:03:25;;;;;;;4.70;1.85;;;19.90;68.00;;;;;;4992020;28;20110;-72
2021/12/03 23:05:52;;;;;;;9.73;1.50;;;19.90;67.90;;;;;;4988309;28;20030;-73
2021/12/03 23:08:18;;;;;;;7.05;2.08;;;19.90;67.90;;;;;;4991964;28;20046;-73
2021/12/03 23:10:45;;;;;;;6.90;2.05;;;19.90;67.90;;;;;;4993281;28;20118;-72
2021/12/03 23:13:12;;;;;;;7.35;2.30;;;20.00;68.10;;;;;;4993406;28;20025;-72
2021/12/03 23:15:39;;;;;;;7.07;1.55;;;20.00;68.20;;;;;;4992191;28;20037;-73
2021/12/03 23:18:07;;;;;;;6.38;2.25;;;20.00;68.60;;;;;;4995218;28;20029;-72
2021/12/03 23:20:34;;;;;;;5.15;1.85;;;20.00;68.50;;;;;;4994925;28;20033;-72
2021/12/03 23:23:02;;;;;;;10.98;2.40;;;20.00;68.80;;;;;;4993839;28;20022;-72
2021/12/03 23:25:29;;;;;;;7.40;2.10;;;20.00;69.20;;;;;;4997853;28;20052;-72
2021/12/03 23:27:55;;;;;;;8.48;1.95;;;20.00;69.20;;;;;;4992073;28;20081;-71
2021/12/03 23:30:23;;;;;;;6.00;1.63;;;20.00;69.10;;;;;;4994894;28;20397;-72
2021/12/03 23:32:50;;;;;;;3.67;1.85;;;20.00;68.90;;;;;;4992624;28;20023;-72
2021/12/03 23:35:17;;;;;;;5.30;1.80;;;20.00;68.90;;;;;;4995713;28;20566;-72
2021/12/03 23:37:43;;;;;;;7.53;2.28;;;20.00;68.50;;;;;;4993827;28;20046;-72
2021/12/03 23:40:10;;;;;;;3.70;1.10;;;20.00;68.40;;;;;;5022752;28;20068;-72
2021/12/03 23:42:37;;;;;;;7.78;2.28;;;20.00;68.40;;;;;;4993832;28;20076;-74
2021/12/03 23:45:04;;;;;;;5.07;1.40;;;20.00;68.40;;;;;;4991379;28;20022;-72
2021/12/03 23:47:31;;;;;;;4.50;1.48;;;20.00;68.30;;;;;;4994984;28;20042;-73
2021/12/03 23:49:58;;;;;;;2.83;1.05;;;20.00;68.30;;;;;;4993945;28;20034;-73
2021/12/03 23:52:24;;;;;;;5.60;1.85;;;20.10;68.60;;;;;;4995116;28;20429;-72
2021/12/03 23:54:58;;;;;;;7.10;1.83;;;20.10;68.80;;;;;;4994629;28;20505;-74
2021/12/03 23:57:28;;;;;;;9.05;1.95;;;20.10;69.00;;;;;;4992942;28;20030;-73
2021/12/03 23:59:56;;;;;;;10.13;2.22;;;20.00;69.10;;;;;;4991763;28;20022;-73
